sensor_id;sensor_type;location;lat;lon;timestamp;pressure;altitude;pressure_sealevel;temperature;humidity
78309;BME280;75657;42.022;21.356;2024-02-23T00:00:47;98553.34;;;6.79;69.87
78309;BME280;75657;42.022;21.356;2024-02-23T00:03:13;98554.69;;;6.82;70.10
78309;BME280;75657;42.022;21.356;2024-02-23T00:05:38;98564.19;;;6.83;69.85
78309;BME280;75657;42.022;21.356;2024-02-23T00:08:04;98558.38;;;6.81;70.24
78309;BME280;75657;42.022;21.356;2024-02-23T00:10:29;98552.84;;;6.77;70.29
78309;BME280;75657;42.022;21.356;2024-02-23T00:12:55;98566.59;;;6.79;70.09
78309;BME280;75657;42.022;21.356;2024-02-23T00:15:20;98562.38;;;6.78;70.04
78309;BME280;75657;42.022;21.356;2024-02-23T00:17:46;98560.31;;;6.70;70.90
78309;BME280;75657;42.022;21.356;2024-02-23T00:20:11;98554.31;;;6.59;70.97
78309;BME280;75657;42.022;21.356;2024-02-23T00:22:37;98553.75;;;6.63;70.92
78309;BME280;75657;42.022;21.356;2024-02-23T00:25:03;98545.00;;;6.62;70.51
78309;BME280;75657;42.022;21.356;2024-02-23T00:27:29;98540.81;;;6.61;70.20
78309;BME280;75657;42.022;21.356;2024-02-23T00:29:54;98545.41;;;6.45;70.88
78309;BME280;75657;42.022;21.356;2024-02-23T00:32:19;98540.38;;;6.43;70.47
78309;BME280;75657;42.022;21.356;2024-02-23T00:34:45;98547.31;;;6.34;70.85
78309;BME280;75657;42.022;21.356;2024-02-23T00:37:11;98546.28;;;6.30;70.70
78309;BME280;75657;42.022;21.356;2024-02-23T00:39:36;98542.38;;;6.22;70.85
78309;BME280;75657;42.022;21.356;2024-02-23T00:42:03;98539.00;;;6.12;71.58
78309;BME280;75657;42.022;21.356;2024-02-23T00:44:28;98542.44;;;6.07;71.45
78309;BME280;75657;42.022;21.356;2024-02-23T00:46:54;98529.22;;;6.07;71.20
78309;BME280;75657;42.022;21.356;2024-02-23T00:49:19;98535.56;;;6.01;71.52
78309;BME280;75657;42.022;21.356;2024-02-23T00:51:45;98530.03;;;6.02;71.63
78309;BME280;75657;42.022;21.356;2024-02-23T00:54:10;98528.72;;;6.05;71.28
78309;BME280;75657;42.022;21.356;2024-02-23T00:56:36;98528.97;;;6.03;70.94
78309;BME280;75657;42.022;21.356;2024-02-23T00:59:01;98535.88;;;5.99;71.06
78309;BME280;75657;42.022;21.356;2024-02-23T01:01:27;98530.09;;;5.82;71.83
78309;BME280;75657;42.022;21.356;2024-02-23T01:03:53;98534.84;;;5.80;71.79
78309;BME280;75657;42.022;21.356;2024-02-23T01:06:19;98522.72;;;5.79;72.13
78309;BME280;75657;42.022;21.356;2024-02-23T01:08:45;98526.94;;;5.70;72.31
78309;BME280;75657;42.022;21.356;2024-02-23T01:11:10;98529.56;;;5.75;71.95
78309;BME280;75657;42.022;21.356;2024-02-23T01:13:35;98520.91;;;5.59;72.67
78309;BME280;75657;42.022;21.356;2024-02-23T01:16:01;98529.34;;;5.61;72.33
78309;BME280;75657;42.022;21.356;2024-02-23T01:18:27;98525.41;;;5.63;72.42
78309;BME280;75657;42.022;21.356;2024-02-23T01:20:53;98531.19;;;5.65;72.26
78309;BME280;75657;42.022;21.356;2024-02-23T01:23:18;98514.56;;;5.65;72.42
78309;BME280;75657;42.022;21.356;2024-02-23T01:25:43;98513.56;;;5.56;72.47
78309;BME280;75657;42.022;21.356;2024-02-23T01:28:09;98511.72;;;5.46;73.06
78309;BME280;75657;42.022;21.356;2024-02-23T01:30:34;98509.88;;;5.46;73.03
78309;BME280;75657;42.022;21.356;2024-02-23T01:33:00;98507.75;;;5.48;73.02
78309;BME280;75657;42.022;21.356;2024-02-23T01:35:25;98512.75;;;5.50;72.55
78309;BME280;75657;42.022;21.356;2024-02-23T01:37:51;98514.88;;;5.53;72.86
78309;BME280;75657;42.022;21.356;2024-02-23T01:40:16;98514.59;;;5.55;72.68
78309;BME280;75657;42.022;21.356;2024-02-23T01:42:42;98501.13;;;5.56;72.77
78309;BME280;75657;42.022;21.356;2024-02-23T01:45:07;98494.00;;;5.57;72.81
78309;BME280;75657;42.022;21.356;2024-02-23T01:47:33;98495.06;;;5.56;72.86
78309;BME280;75657;42.022;21.356;2024-02-23T01:49:59;98487.69;;;5.53;73.05
78309;BME280;75657;42.022;21.356;2024-02-23T01:52:25;98481.63;;;5.47;73.21
78309;BME280;75657;42.022;21.356;2024-02-23T01:54:51;98479.78;;;5.42;73.14
78309;BME280;75657;42.022;21.356;2024-02-23T01:57:17;98480.81;;;5.46;73.54
78309;BME280;75657;42.022;21.356;2024-02-23T01:59:43;98474.00;;;5.40;72.98
78309;BME280;75657;42.022;21.356;2024-02-23T02:02:09;98473.19;;;5.35;72.82
78309;BME280;75657;42.022;21.356;2024-02-23T02:04:34;98471.91;;;5.22;73.09
78309;BME280;75657;42.022;21.356;2024-02-23T02:07:00;98467.47;;;5.17;73.22
78309;BME280;75657;42.022;21.356;2024-02-23T02:09:26;98464.53;;;5.19;73.25
78309;BME280;75657;42.022;21.356;2024-02-23T02:11:52;98464.53;;;5.19;73.38
78309;BME280;75657;42.022;21.356;2024-02-23T02:14:18;98465.09;;;5.16;73.04
78309;BME280;75657;42.022;21.356;2024-02-23T02:16:44;98466.66;;;5.11;73.58
78309;BME280;75657;42.022;21.356;2024-02-23T02:19:10;98474.31;;;5.08;73.41
78309;BME280;75657;42.022;21.356;2024-02-23T02:21:37;98476.69;;;5.09;73.78
78309;BME280;75657;42.022;21.356;2024-02-23T02:24:03;98475.13;;;5.08;73.35
78309;BME280;75657;42.022;21.356;2024-02-23T02:26:29;98478.03;;;5.12;73.25
78309;BME280;75657;42.022;21.356;2024-02-23T02:28:55;98473.78;;;5.16;73.57
78309;BME280;75657;42.022;21.356;2024-02-23T02:31:20;98479.59;;;5.13;73.40
78309;BME280;75657;42.022;21.356;2024-02-23T02:33:45;98474.88;;;5.00;73.47
78309;BME280;75657;42.022;21.356;2024-02-23T02:36:11;98474.09;;;4.89;73.40
78309;BME280;75657;42.022;21.356;2024-02-23T02:38:37;98473.31;;;4.88;73.64
78309;BME280;75657;42.022;21.356;2024-02-23T02:41:03;98468.28;;;4.82;73.72
78309;BME280;75657;42.022;21.356;2024-02-23T02:43:29;98474.38;;;4.72;74.07
78309;BME280;75657;42.022;21.356;2024-02-23T02:45:54;98469.91;;;4.72;74.07
78309;BME280;75657;42.022;21.356;2024-02-23T02:48:20;98470.69;;;4.73;74.25
78309;BME280;75657;42.022;21.356;2024-02-23T02:50:45;98467.00;;;4.74;73.74
78309;BME280;75657;42.022;21.356;2024-02-23T02:53:11;98477.03;;;4.77;74.27
78309;BME280;75657;42.022;21.356;2024-02-23T02:55:41;98468.81;;;4.84;74.33
78309;BME280;75657;42.022;21.356;2024-02-23T02:58:06;98468.03;;;4.78;74.49
78309;BME280;75657;42.022;21.356;2024-02-23T03:00:32;98469.09;;;4.82;74.83
78309;BME280;75657;42.022;21.356;2024-02-23T03:02:58;98472.78;;;4.86;74.42
78309;BME280;75657;42.022;21.356;2024-02-23T03:05:23;98472.00;;;4.86;74.24
78309;BME280;75657;42.022;21.356;2024-02-23T03:07:49;98478.59;;;4.78;74.23
78309;BME280;75657;42.022;21.356;2024-02-23T03:10:14;98467.50;;;4.76;74.35
78309;BME280;75657;42.022;21.356;2024-02-23T03:12:41;98464.63;;;4.78;74.10
78309;BME280;75657;42.022;21.356;2024-02-23T03:15:07;98468.03;;;4.78;74.24
78309;BME280;75657;42.022;21.356;2024-02-23T03:17:32;98465.66;;;4.71;73.98
78309;BME280;75657;42.022;21.356;2024-02-23T03:19:58;98468.31;;;4.66;73.91
78309;BME280;75657;42.022;21.356;2024-02-23T03:22:24;98468.59;;;4.65;74.16
78309;BME280;75657;42.022;21.356;2024-02-23T03:24:49;98471.50;;;4.63;74.51
78309;BME280;75657;42.022;21.356;2024-02-23T03:27:15;98475.44;;;4.61;74.09
78309;BME280;75657;42.022;21.356;2024-02-23T03:29:40;98483.06;;;4.62;74.25
78309;BME280;75657;42.022;21.356;2024-02-23T03:32:06;98478.06;;;4.61;74.25
78309;BME280;75657;42.022;21.356;2024-02-23T03:34:32;98476.50;;;4.54;74.35
78309;BME280;75657;42.022;21.356;2024-02-23T03:36:58;98461.19;;;4.57;74.32
78309;BME280;75657;42.022;21.356;2024-02-23T03:39:28;98475.94;;;4.58;74.03
78309;BME280;75657;42.022;21.356;2024-02-23T03:41:54;98470.97;;;4.51;74.58
78309;BME280;75657;42.022;21.356;2024-02-23T03:44:19;98476.75;;;4.48;73.99
78309;BME280;75657;42.022;21.356;2024-02-23T03:46:45;98484.66;;;4.48;74.00
78309;BME280;75657;42.022;21.356;2024-02-23T03:49:10;98471.47;;;4.48;74.32
78309;BME280;75657;42.022;21.356;2024-02-23T03:51:37;98472.78;;;4.35;73.75
78309;BME280;75657;42.022;21.356;2024-02-23T03:54:05;98475.69;;;4.28;74.39
78309;BME280;75657;42.022;21.356;2024-02-23T03:56:37;98474.88;;;4.12;74.54
78309;BME280;75657;42.022;21.356;2024-02-23T03:59:03;98479.59;;;4.15;74.44
78309;BME280;75657;42.022;21.356;2024-02-23T04:01:29;98477.22;;;4.14;74.24
78309;BME280;75657;42.022;21.356;2024-02-23T04:03:55;98472.75;;;4.09;74.43
78309;BME280;75657;42.022;21.356;2024-02-23T04:06:20;98473.28;;;4.06;74.59
78309;BME280;75657;42.022;21.356;2024-02-23T04:08:46;98474.88;;;4.07;74.49
78309;BME280;75657;42.022;21.356;2024-02-23T04:11:13;98476.94;;;4.10;74.80
78309;BME280;75657;42.022;21.356;2024-02-23T04:13:38;98470.13;;;4.09;74.76
78309;BME280;75657;42.022;21.356;2024-02-23T04:16:04;98468.78;;;4.12;74.77
78309;BME280;75657;42.022;21.356;2024-02-23T04:18:29;98470.09;;;4.04;74.82
78309;BME280;75657;42.022;21.356;2024-02-23T04:20:55;98467.19;;;4.01;75.35
78309;BME280;75657;42.022;21.356;2024-02-23T04:23:20;98466.13;;;3.96;75.33
78309;BME280;75657;42.022;21.356;2024-02-23T04:25:46;98469.28;;;3.93;75.66
78309;BME280;75657;42.022;21.356;2024-02-23T04:28:11;98460.84;;;3.96;75.62
78309;BME280;75657;42.022;21.356;2024-02-23T04:30:37;98458.75;;;3.93;75.67
78309;BME280;75657;42.022;21.356;2024-02-23T04:33:02;98454.53;;;3.87;75.67
78309;BME280;75657;42.022;21.356;2024-02-23T04:35:28;98467.69;;;3.87;75.43
78309;BME280;75657;42.022;21.356;2024-02-23T04:37:53;98465.59;;;3.89;75.71
78309;BME280;75657;42.022;21.356;2024-02-23T04:40:18;98469.03;;;3.90;75.84
78309;BME280;75657;42.022;21.356;2024-02-23T04:42:44;98475.59;;;3.92;75.96
78309;BME280;75657;42.022;21.356;2024-02-23T04:45:11;98478.22;;;3.87;75.24
78309;BME280;75657;42.022;21.356;2024-02-23T04:47:36;98475.59;;;3.87;75.87
78309;BME280;75657;42.022;21.356;2024-02-23T04:50:02;98466.38;;;3.90;76.02
78309;BME280;75657;42.022;21.356;2024-02-23T04:52:28;98471.94;;;3.93;75.30
78309;BME280;75657;42.022;21.356;2024-02-23T04:54:54;98475.06;;;3.90;75.82
78309;BME280;75657;42.022;21.356;2024-02-23T04:57:20;98473.75;;;3.93;75.98
78309;BME280;75657;42.022;21.356;2024-02-23T04:59:45;98475.09;;;3.95;76.44
78309;BME280;75657;42.022;21.356;2024-02-23T05:02:10;98473.25;;;4.01;75.98
78309;BME280;75657;42.022;21.356;2024-02-23T05:04:36;98475.63;;;4.03;76.31
78309;BME280;75657;42.022;21.356;2024-02-23T05:07:02;98474.56;;;4.09;76.48
78309;BME280;75657;42.022;21.356;2024-02-23T05:09:27;98470.09;;;4.04;76.37
78309;BME280;75657;42.022;21.356;2024-02-23T05:11:53;98481.16;;;4.06;76.23
78309;BME280;75657;42.022;21.356;2024-02-23T05:14:18;98479.06;;;4.08;76.14
78309;BME280;75657;42.022;21.356;2024-02-23T05:16:44;98486.47;;;4.16;76.63
78309;BME280;75657;42.022;21.356;2024-02-23T05:19:09;98499.13;;;4.25;76.88
78309;BME280;75657;42.022;21.356;2024-02-23T05:21:34;98489.91;;;4.32;76.51
78309;BME280;75657;42.022;21.356;2024-02-23T05:24:00;98482.28;;;4.41;76.94
78309;BME280;75657;42.022;21.356;2024-02-23T05:26:25;98486.22;;;4.44;76.68
78309;BME280;75657;42.022;21.356;2024-02-23T05:28:51;98488.88;;;4.33;76.44
78309;BME280;75657;42.022;21.356;2024-02-23T05:31:17;98481.69;;;4.08;75.94
78309;BME280;75657;42.022;21.356;2024-02-23T05:33:43;98482.22;;;4.05;76.35
78309;BME280;75657;42.022;21.356;2024-02-23T05:36:08;98489.59;;;4.08;76.18
78309;BME280;75657;42.022;21.356;2024-02-23T05:38:34;98479.59;;;4.15;76.69
78309;BME280;75657;42.022;21.356;2024-02-23T05:40:59;98484.38;;;4.24;76.23
78309;BME280;75657;42.022;21.356;2024-02-23T05:43:25;98493.59;;;4.31;76.08
78309;BME280;75657;42.022;21.356;2024-02-23T05:45:50;98486.25;;;4.39;76.65
78309;BME280;75657;42.022;21.356;2024-02-23T05:48:15;98495.22;;;4.48;76.02
78309;BME280;75657;42.022;21.356;2024-02-23T05:50:41;98495.22;;;4.53;76.57
78309;BME280;75657;42.022;21.356;2024-02-23T05:53:06;98489.94;;;4.58;76.43
78309;BME280;75657;42.022;21.356;2024-02-23T05:55:32;98492.59;;;4.58;76.94
78309;BME280;75657;42.022;21.356;2024-02-23T05:57:58;98498.38;;;4.60;76.56
78309;BME280;75657;42.022;21.356;2024-02-23T06:00:24;98497.84;;;4.68;76.49
78309;BME280;75657;42.022;21.356;2024-02-23T06:02:50;98496.25;;;4.78;76.25
78309;BME280;75657;42.022;21.356;2024-02-23T06:05:15;98494.16;;;4.80;76.55
78309;BME280;75657;42.022;21.356;2024-02-23T06:07:41;98493.63;;;4.83;76.82
78309;BME280;75657;42.022;21.356;2024-02-23T06:10:07;98493.63;;;4.88;76.99
78309;BME280;75657;42.022;21.356;2024-02-23T06:12:32;98494.16;;;4.90;77.08
78309;BME280;75657;42.022;21.356;2024-02-23T06:14:58;98499.16;;;4.97;77.45
78309;BME280;75657;42.022;21.356;2024-02-23T06:17:26;98495.19;;;5.04;76.84
78309;BME280;75657;42.022;21.356;2024-02-23T06:19:52;98491.22;;;5.17;76.15
78309;BME280;75657;42.022;21.356;2024-02-23T06:22:18;98494.59;;;5.33;76.38
78309;BME280;75657;42.022;21.356;2024-02-23T06:24:47;98498.25;;;5.47;76.53
78309;BME280;75657;42.022;21.356;2024-02-23T06:27:12;98495.31;;;5.59;76.25
78309;BME280;75657;42.022;21.356;2024-02-23T06:29:38;98488.69;;;5.67;76.08
78309;BME280;75657;42.022;21.356;2024-02-23T06:32:04;98494.41;;;5.84;76.36
78309;BME280;75657;42.022;21.356;2024-02-23T06:34:29;98489.63;;;5.92;75.63
78309;BME280;75657;42.022;21.356;2024-02-23T06:36:55;98490.94;;;5.99;75.91
78309;BME280;75657;42.022;21.356;2024-02-23T06:39:21;98497.25;;;6.03;76.00
78309;BME280;75657;42.022;21.356;2024-02-23T06:41:46;98499.63;;;6.05;75.65
78309;BME280;75657;42.022;21.356;2024-02-23T06:44:12;98499.66;;;6.00;76.45
78309;BME280;75657;42.022;21.356;2024-02-23T06:46:37;98509.94;;;6.07;75.95
78309;BME280;75657;42.022;21.356;2024-02-23T06:49:03;98509.63;;;6.13;75.67
78309;BME280;75657;42.022;21.356;2024-02-23T06:51:31;98512.78;;;6.20;76.08
78309;BME280;75657;42.022;21.356;2024-02-23T06:53:56;98517.19;;;6.30;75.71
78309;BME280;75657;42.022;21.356;2024-02-23T06:56:30;98515.84;;;6.38;75.67
78309;BME280;75657;42.022;21.356;2024-02-23T06:58:56;98518.44;;;6.43;75.33
78309;BME280;75657;42.022;21.356;2024-02-23T07:01:21;98513.16;;;6.43;75.83
78309;BME280;75657;42.022;21.356;2024-02-23T07:03:47;98512.28;;;6.53;75.35
78309;BME280;75657;42.022;21.356;2024-02-23T07:06:16;98515.88;;;6.67;75.30
78309;BME280;75657;42.022;21.356;2024-02-23T07:08:44;98518.16;;;6.79;76.00
78309;BME280;75657;42.022;21.356;2024-02-23T07:11:10;98518.63;;;6.86;75.67
78309;BME280;75657;42.022;21.356;2024-02-23T07:13:35;98520.09;;;7.03;75.48
78309;BME280;75657;42.022;21.356;2024-02-23T07:16:01;98511.50;;;7.16;75.25
78309;BME280;75657;42.022;21.356;2024-02-23T07:18:27;98513.44;;;7.34;74.85
78309;BME280;75657;42.022;21.356;2024-02-23T07:20:53;98510.06;;;7.53;74.15
78309;BME280;75657;42.022;21.356;2024-02-23T07:23:18;98514.72;;;7.61;74.40
78309;BME280;75657;42.022;21.356;2024-02-23T07:25:44;98505.38;;;7.69;74.06
78309;BME280;75657;42.022;21.356;2024-02-23T07:28:10;98512.47;;;7.73;74.24
78309;BME280;75657;42.022;21.356;2024-02-23T07:30:35;98517.66;;;7.84;73.64
78309;BME280;75657;42.022;21.356;2024-02-23T07:33:01;98516.22;;;7.91;73.85
78309;BME280;75657;42.022;21.356;2024-02-23T07:35:26;98520.84;;;8.05;73.69
78309;BME280;75657;42.022;21.356;2024-02-23T07:37:53;98513.03;;;8.13;73.79
78309;BME280;75657;42.022;21.356;2024-02-23T07:40:18;98522.72;;;8.23;73.15
78309;BME280;75657;42.022;21.356;2024-02-23T07:42:44;98520.22;;;8.32;72.82
78309;BME280;75657;42.022;21.356;2024-02-23T07:45:09;98527.81;;;8.39;72.43
78309;BME280;75657;42.022;21.356;2024-02-23T07:47:36;98524.53;;;8.47;72.93
78309;BME280;75657;42.022;21.356;2024-02-23T07:50:01;98518.88;;;8.54;72.09
78309;BME280;75657;42.022;21.356;2024-02-23T07:52:29;98521.06;;;8.65;72.02
78309;BME280;75657;42.022;21.356;2024-02-23T07:54:54;98526.53;;;8.74;71.93
78309;BME280;75657;42.022;21.356;2024-02-23T07:57:20;98533.50;;;8.84;72.36
78309;BME280;75657;42.022;21.356;2024-02-23T07:59:46;98519.59;;;8.92;71.41
78309;BME280;75657;42.022;21.356;2024-02-23T08:02:11;98530.31;;;9.01;70.95
78309;BME280;75657;42.022;21.356;2024-02-23T08:04:37;98518.56;;;9.07;70.88
78309;BME280;75657;42.022;21.356;2024-02-23T08:07:03;98514.31;;;9.06;71.27
78309;BME280;75657;42.022;21.356;2024-02-23T08:09:29;98521.63;;;9.14;70.95
78309;BME280;75657;42.022;21.356;2024-02-23T08:11:55;98507.63;;;9.22;71.44
78309;BME280;75657;42.022;21.356;2024-02-23T08:14:20;98501.75;;;9.25;71.20
78309;BME280;75657;42.022;21.356;2024-02-23T08:17:12;98510.59;;;9.35;70.87
78309;BME280;75657;42.022;21.356;2024-02-23T08:19:37;98510.41;;;9.45;70.19
78309;BME280;75657;42.022;21.356;2024-02-23T08:22:03;98510.81;;;9.52;70.56
78309;BME280;75657;42.022;21.356;2024-02-23T08:24:28;98504.31;;;9.58;69.89
78309;BME280;75657;42.022;21.356;2024-02-23T08:26:56;98490.53;;;9.56;70.20
78309;BME280;75657;42.022;21.356;2024-02-23T08:29:22;98499.88;;;9.68;69.22
78309;BME280;75657;42.022;21.356;2024-02-23T08:31:48;98504.50;;;9.76;69.34
78309;BME280;75657;42.022;21.356;2024-02-23T08:34:13;98512.28;;;9.86;69.65
78309;BME280;75657;42.022;21.356;2024-02-23T08:36:39;98512.56;;;9.98;69.44
78309;BME280;75657;42.022;21.356;2024-02-23T08:39:08;98507.69;;;10.14;68.92
78309;BME280;75657;42.022;21.356;2024-02-23T08:41:34;98511.59;;;10.31;68.46
78309;BME280;75657;42.022;21.356;2024-02-23T08:43:59;98499.06;;;10.45;68.14
78309;BME280;75657;42.022;21.356;2024-02-23T08:46:25;98508.25;;;10.62;68.27
78309;BME280;75657;42.022;21.356;2024-02-23T08:48:56;98513.66;;;10.70;67.68
78309;BME280;75657;42.022;21.356;2024-02-23T08:51:21;98509.78;;;10.76;67.53
78309;BME280;75657;42.022;21.356;2024-02-23T08:53:47;98499.00;;;10.82;67.00
78309;BME280;75657;42.022;21.356;2024-02-23T08:56:12;98499.97;;;10.86;66.97
78309;BME280;75657;42.022;21.356;2024-02-23T08:58:38;98507.53;;;10.92;67.32
78309;BME280;75657;42.022;21.356;2024-02-23T09:01:04;98501.78;;;10.99;66.89
78309;BME280;75657;42.022;21.356;2024-02-23T09:03:30;98500.72;;;11.09;67.36
78309;BME280;75657;42.022;21.356;2024-02-23T09:05:57;98506.22;;;11.12;66.74
78309;BME280;75657;42.022;21.356;2024-02-23T09:08:22;98510.22;;;11.24;66.61
78309;BME280;75657;42.022;21.356;2024-02-23T09:10:48;98503.66;;;11.39;65.72
78309;BME280;75657;42.022;21.356;2024-02-23T09:13:13;98501.78;;;11.39;65.63
78309;BME280;75657;42.022;21.356;2024-02-23T09:15:40;98507.44;;;11.38;65.80
78309;BME280;75657;42.022;21.356;2024-02-23T09:18:07;98508.09;;;11.43;66.37
78309;BME280;75657;42.022;21.356;2024-02-23T09:20:33;98495.09;;;11.50;66.31
78309;BME280;75657;42.022;21.356;2024-02-23T09:22:58;98498.44;;;11.65;65.72
78309;BME280;75657;42.022;21.356;2024-02-23T09:25:24;98494.09;;;11.78;64.72
78309;BME280;75657;42.022;21.356;2024-02-23T09:27:49;98502.25;;;11.81;65.58
78309;BME280;75657;42.022;21.356;2024-02-23T09:30:15;98498.00;;;11.80;64.33
78309;BME280;75657;42.022;21.356;2024-02-23T09:32:41;98487.03;;;11.82;64.88
78309;BME280;75657;42.022;21.356;2024-02-23T09:35:06;98478.91;;;11.96;64.05
78309;BME280;75657;42.022;21.356;2024-02-23T09:37:32;98479.25;;;12.20;63.80
78309;BME280;75657;42.022;21.356;2024-02-23T09:39:58;98472.78;;;12.39;63.40
78309;BME280;75657;42.022;21.356;2024-02-23T09:42:23;98474.38;;;12.57;62.64
78309;BME280;75657;42.022;21.356;2024-02-23T09:44:59;98472.72;;;12.91;62.38
78309;BME280;75657;42.022;21.356;2024-02-23T09:47:28;98458.22;;;13.10;61.73
78309;BME280;75657;42.022;21.356;2024-02-23T09:49:57;98450.16;;;13.18;60.84
78309;BME280;75657;42.022;21.356;2024-02-23T09:52:23;98455.47;;;13.27;60.92
78309;BME280;75657;42.022;21.356;2024-02-23T09:54:49;98462.53;;;13.40;60.26
78309;BME280;75657;42.022;21.356;2024-02-23T09:57:16;98452.31;;;13.64;60.63
78309;BME280;75657;42.022;21.356;2024-02-23T09:59:43;98457.69;;;13.85;60.35
78309;BME280;75657;42.022;21.356;2024-02-23T10:02:16;98445.84;;;13.94;59.60
78309;BME280;75657;42.022;21.356;2024-02-23T10:04:43;98453.81;;;14.03;59.12
78309;BME280;75657;42.022;21.356;2024-02-23T10:07:09;98443.69;;;13.88;59.75
78309;BME280;75657;42.022;21.356;2024-02-23T10:09:35;98444.06;;;13.77;59.19
78309;BME280;75657;42.022;21.356;2024-02-23T10:12:02;98434.63;;;13.71;59.76
78309;BME280;75657;42.022;21.356;2024-02-23T10:14:27;98433.94;;;13.83;59.71
78309;BME280;75657;42.022;21.356;2024-02-23T10:16:53;98430.16;;;13.84;59.87
78309;BME280;75657;42.022;21.356;2024-02-23T10:19:20;98435.66;;;13.88;58.96
78309;BME280;75657;42.022;21.356;2024-02-23T10:21:47;98421.34;;;13.84;58.88
78309;BME280;75657;42.022;21.356;2024-02-23T10:24:15;98430.69;;;13.77;59.07
78309;BME280;75657;42.022;21.356;2024-02-23T10:26:41;98425.13;;;13.83;59.67
78309;BME280;75657;42.022;21.356;2024-02-23T10:29:07;98425.44;;;14.02;58.71
78309;BME280;75657;42.022;21.356;2024-02-23T10:31:35;98419.25;;;14.10;58.67
78309;BME280;75657;42.022;21.356;2024-02-23T10:34:09;98412.50;;;14.25;58.96
78309;BME280;75657;42.022;21.356;2024-02-23T10:36:40;98409.09;;;14.37;58.61
78309;BME280;75657;42.022;21.356;2024-02-23T10:39:07;98401.47;;;14.60;58.25
78309;BME280;75657;42.022;21.356;2024-02-23T10:41:35;98392.69;;;14.72;57.43
78309;BME280;75657;42.022;21.356;2024-02-23T10:44:03;98390.03;;;14.97;56.88
78309;BME280;75657;42.022;21.356;2024-02-23T10:46:31;98386.91;;;14.82;55.83
78309;BME280;75657;42.022;21.356;2024-02-23T10:48:58;98387.13;;;14.89;56.74
78309;BME280;75657;42.022;21.356;2024-02-23T10:51:25;98380.53;;;15.24;56.43
78309;BME280;75657;42.022;21.356;2024-02-23T10:53:52;98372.59;;;15.40;56.03
78309;BME280;75657;42.022;21.356;2024-02-23T10:56:18;98367.78;;;15.45;56.38
78309;BME280;75657;42.022;21.356;2024-02-23T10:58:43;98364.41;;;15.48;56.30
78309;BME280;75657;42.022;21.356;2024-02-23T11:01:09;98359.38;;;15.47;56.31
78309;BME280;75657;42.022;21.356;2024-02-23T11:03:36;98356.38;;;15.48;56.28
78309;BME280;75657;42.022;21.356;2024-02-23T11:06:06;98347.88;;;15.46;55.65
78309;BME280;75657;42.022;21.356;2024-02-23T11:08:35;98353.69;;;15.48;55.16
78309;BME280;75657;42.022;21.356;2024-02-23T11:11:10;98350.44;;;15.55;54.78
78309;BME280;75657;42.022;21.356;2024-02-23T11:13:40;98346.56;;;15.68;54.89
78309;BME280;75657;42.022;21.356;2024-02-23T11:16:07;98339.22;;;15.78;54.40
78309;BME280;75657;42.022;21.356;2024-02-23T11:18:36;98330.78;;;15.79;54.11
78309;BME280;75657;42.022;21.356;2024-02-23T11:21:04;98334.63;;;15.78;54.45
78309;BME280;75657;42.022;21.356;2024-02-23T11:23:49;98322.19;;;15.74;53.89
78309;BME280;75657;42.022;21.356;2024-02-23T11:26:17;98327.69;;;15.65;54.27
78309;BME280;75657;42.022;21.356;2024-02-23T11:31:15;98315.66;;;15.59;54.59
78309;BME280;75657;42.022;21.356;2024-02-23T11:33:52;98316.41;;;15.59;53.62
78309;BME280;75657;42.022;21.356;2024-02-23T11:36:31;98301.44;;;15.58;52.79
78309;BME280;75657;42.022;21.356;2024-02-23T11:38:58;98299.53;;;15.59;52.60
78309;BME280;75657;42.022;21.356;2024-02-23T11:41:25;98294.94;;;15.59;50.10
78309;BME280;75657;42.022;21.356;2024-02-23T11:43:51;98291.25;;;15.64;50.40
78309;BME280;75657;42.022;21.356;2024-02-23T11:46:18;98288.19;;;15.65;49.20
78309;BME280;75657;42.022;21.356;2024-02-23T11:48:44;98289.97;;;15.74;51.21
78309;BME280;75657;42.022;21.356;2024-02-23T11:51:12;98292.88;;;15.81;51.85
78309;BME280;75657;42.022;21.356;2024-02-23T11:53:37;98289.59;;;15.88;51.98
78309;BME280;75657;42.022;21.356;2024-02-23T11:56:05;98288.16;;;15.90;51.31
78309;BME280;75657;42.022;21.356;2024-02-23T11:58:33;98288.69;;;15.96;50.63
78309;BME280;75657;42.022;21.356;2024-02-23T12:01:03;98280.38;;;16.01;51.21
78309;BME280;75657;42.022;21.356;2024-02-23T12:03:29;98280.03;;;16.02;50.46
78309;BME280;75657;42.022;21.356;2024-02-23T12:05:58;98277.78;;;16.04;50.15
78309;BME280;75657;42.022;21.356;2024-02-23T12:08:27;98275.44;;;16.03;48.83
78309;BME280;75657;42.022;21.356;2024-02-23T12:10:56;98277.69;;;16.01;48.09
78309;BME280;75657;42.022;21.356;2024-02-23T12:13:22;98270.94;;;16.07;46.73
78309;BME280;75657;42.022;21.356;2024-02-23T12:15:49;98264.34;;;16.04;47.42
78309;BME280;75657;42.022;21.356;2024-02-23T12:18:18;98261.66;;;16.04;47.52
78309;BME280;75657;42.022;21.356;2024-02-23T12:20:47;98251.63;;;16.01;46.34
78309;BME280;75657;42.022;21.356;2024-02-23T12:23:13;98256.72;;;16.07;47.14
78309;BME280;75657;42.022;21.356;2024-02-23T12:25:39;98259.06;;;16.08;46.77
78309;BME280;75657;42.022;21.356;2024-02-23T12:28:04;98247.66;;;16.11;46.79
78309;BME280;75657;42.022;21.356;2024-02-23T12:30:30;98245.03;;;16.15;46.03
78309;BME280;75657;42.022;21.356;2024-02-23T12:33:23;98242.78;;;16.17;44.71
78309;BME280;75657;42.022;21.356;2024-02-23T12:35:48;98237.84;;;16.19;42.80
78309;BME280;75657;42.022;21.356;2024-02-23T12:38:14;98239.94;;;16.26;44.56
78309;BME280;75657;42.022;21.356;2024-02-23T12:40:39;98234.66;;;16.29;43.55
78309;BME280;75657;42.022;21.356;2024-02-23T12:43:04;98235.41;;;16.30;42.63
78309;BME280;75657;42.022;21.356;2024-02-23T12:45:30;98240.97;;;16.37;44.24
78309;BME280;75657;42.022;21.356;2024-02-23T12:47:55;98231.53;;;16.43;44.86
78309;BME280;75657;42.022;21.356;2024-02-23T12:50:21;98220.84;;;16.47;44.34
78309;BME280;75657;42.022;21.356;2024-02-23T12:52:46;98217.03;;;16.48;44.26
78309;BME280;75657;42.022;21.356;2024-02-23T12:55:12;98214.34;;;16.48;42.61